createdAt,value
2018-04-29T00:02:19.869Z,16.50
2018-04-29T00:04:47.343Z,16.50
2018-04-29T00:07:14.847Z,16.40
2018-04-29T00:09:42.352Z,16.40
2018-04-29T00:12:10.084Z,16.40
2018-04-29T00:14:37.566Z,16.40
2018-04-29T00:17:05.162Z,16.40
2018-04-29T00:19:32.874Z,16.40
2018-04-29T00:22:00.383Z,16.40
2018-04-29T00:24:28.009Z,16.40
2018-04-29T00:26:56.319Z,16.40
2018-04-29T00:29:23.851Z,16.40
2018-04-29T00:31:51.437Z,16.40
2018-04-29T00:34:19.815Z,16.40
2018-04-29T00:36:48.072Z,16.40
2018-04-29T00:39:15.745Z,16.40
2018-04-29T00:41:43.346Z,16.40
2018-04-29T00:44:10.860Z,16.40
2018-04-29T00:46:38.395Z,16.30
2018-04-29T00:49:05.916Z,16.30
2018-04-29T00:51:45.358Z,16.30
2018-04-29T00:54:13.217Z,16.30
2018-04-29T00:56:40.720Z,16.20
2018-04-29T00:59:08.238Z,16.20
2018-04-29T01:01:36.631Z,16.10
2018-04-29T01:04:04.996Z,16.10
2018-04-29T01:06:32.592Z,16.10
2018-04-29T01:09:00.993Z,16.00
2018-04-29T01:11:28.549Z,16.00
2018-04-29T01:13:56.824Z,15.90
2018-04-29T01:16:25.854Z,15.80
2018-04-29T01:18:53.350Z,15.80
2018-04-29T01:21:20.887Z,15.70
2018-04-29T01:23:49.222Z,15.60
2018-04-29T01:26:17.013Z,15.60
2018-04-29T01:28:44.609Z,15.60
2018-04-29T01:31:12.098Z,15.60
2018-04-29T01:33:40.379Z,15.50
2018-04-29T01:36:07.863Z,15.50
2018-04-29T01:38:36.248Z,15.60
2018-04-29T01:41:04.520Z,15.60
2018-04-29T01:43:32.035Z,15.50
2018-04-29T01:45:59.794Z,15.60
2018-04-29T01:48:27.588Z,15.60
2018-04-29T01:50:55.133Z,15.60
2018-04-29T01:53:23.518Z,15.50
2018-04-29T01:55:51.781Z,15.60
2018-04-29T01:58:19.307Z,15.50
2018-04-29T02:00:46.789Z,15.60
2018-04-29T02:03:14.445Z,15.60
2018-04-29T02:05:42.045Z,15.50
2018-04-29T02:08:09.556Z,15.50
2018-04-29T02:10:37.241Z,15.50
2018-04-29T02:13:04.748Z,15.50
2018-04-29T02:15:32.282Z,15.50
2018-04-29T02:18:00.569Z,15.50
2018-04-29T02:20:28.961Z,15.50
2018-04-29T02:22:57.257Z,15.50
2018-04-29T02:25:25.567Z,15.50
2018-04-29T02:27:53.073Z,15.40
2018-04-29T02:30:21.185Z,15.40
2018-04-29T02:32:48.686Z,15.40
2018-04-29T02:35:16.198Z,15.40
2018-04-29T02:37:43.904Z,15.40
2018-04-29T02:40:11.499Z,15.40
2018-04-29T02:42:39.176Z,15.40
2018-04-29T02:45:06.793Z,15.30
2018-04-29T02:47:34.323Z,15.30
2018-04-29T02:50:01.821Z,15.30
2018-04-29T02:52:29.540Z,15.30
2018-04-29T02:54:57.039Z,15.30
2018-04-29T02:57:24.588Z,15.30
2018-04-29T02:59:52.844Z,15.30
2018-04-29T03:02:20.579Z,15.20
2018-04-29T03:04:48.111Z,15.30
2018-04-29T03:07:15.696Z,15.30
2018-04-29T03:09:44.031Z,15.20
2018-04-29T03:12:11.590Z,15.20
2018-04-29T03:14:39.135Z,15.20
2018-04-29T03:17:07.373Z,15.10
2018-04-29T03:19:34.987Z,15.10
2018-04-29T03:22:03.304Z,15.10
2018-04-29T03:24:30.881Z,15.00
2018-04-29T03:26:58.483Z,15.00
2018-04-29T03:29:26.013Z,15.00
2018-04-29T03:31:53.561Z,15.00
2018-04-29T03:34:21.843Z,14.90
2018-04-29T03:36:49.324Z,14.90
2018-04-29T03:39:17.600Z,14.80
2018-04-29T03:41:45.848Z,14.80
2018-04-29T03:44:13.365Z,14.80
2018-04-29T03:46:41.659Z,14.70
2018-04-29T03:49:09.930Z,14.70
2018-04-29T03:51:37.539Z,14.70
2018-04-29T03:54:05.027Z,14.70
2018-04-29T03:56:32.560Z,14.70
2018-04-29T03:59:12.825Z,14.60
2018-04-29T04:01:52.998Z,14.60
2018-04-29T04:04:21.262Z,14.60
2018-04-29T04:06:48.773Z,14.60
2018-04-29T04:09:16.343Z,14.60
2018-04-29T04:11:43.983Z,14.60
2018-04-29T04:14:11.488Z,14.60
2018-04-29T04:16:39.008Z,14.60
2018-04-29T04:19:06.645Z,14.60
2018-04-29T04:21:34.194Z,14.60
2018-04-29T04:24:02.544Z,14.60
2018-04-29T04:26:30.036Z,14.60
2018-04-29T04:28:58.432Z,14.60
2018-04-29T04:31:25.930Z,14.60
2018-04-29T04:33:53.593Z,14.60
2018-04-29T04:36:21.156Z,14.60
2018-04-29T04:38:49.550Z,14.60
2018-04-29T04:41:17.830Z,14.70
2018-04-29T04:43:46.139Z,14.60
2018-04-29T04:46:13.814Z,14.60
2018-04-29T04:48:41.308Z,14.60
2018-04-29T04:51:08.940Z,14.60
2018-04-29T04:53:37.255Z,14.60
2018-04-29T04:56:04.824Z,14.60
2018-04-29T04:58:32.382Z,14.60
2018-04-29T05:01:00.775Z,14.60
2018-04-29T05:03:29.100Z,14.60
2018-04-29T05:05:56.612Z,14.60
2018-04-29T05:08:24.180Z,14.60
2018-04-29T05:10:51.726Z,14.60
2018-04-29T05:13:19.247Z,14.60
2018-04-29T05:15:47.657Z,14.60
2018-04-29T05:18:15.252Z,14.60
2018-04-29T05:20:42.858Z,14.60
2018-04-29T05:23:10.384Z,14.60
2018-04-29T05:25:38.020Z,14.70
2018-04-29T05:28:05.554Z,14.70
2018-04-29T05:30:33.062Z,14.70
2018-04-29T05:33:01.391Z,14.80
2018-04-29T05:35:29.115Z,14.80
2018-04-29T05:37:56.455Z,14.80
2018-04-29T05:40:24.015Z,14.90
2018-04-29T05:42:51.681Z,14.90
2018-04-29T05:45:19.447Z,15.00
2018-04-29T05:47:46.957Z,15.00
2018-04-29T05:50:14.579Z,15.10
2018-04-29T05:52:42.077Z,15.20
2018-04-29T05:55:09.624Z,15.20
2018-04-29T05:57:37.176Z,15.20
2018-04-29T06:00:05.542Z,15.30
2018-04-29T06:02:33.044Z,15.30
2018-04-29T06:05:01.421Z,15.40
2018-04-29T06:07:29.714Z,15.40
2018-04-29T06:09:58.615Z,15.50
2018-04-29T06:12:28.205Z,15.40
2018-04-29T06:14:55.742Z,15.50
2018-04-29T06:17:23.388Z,15.60
2018-04-29T06:19:51.683Z,15.70
2018-04-29T06:22:19.296Z,15.70
2018-04-29T06:24:47.140Z,15.80
2018-04-29T06:27:14.618Z,15.80
2018-04-29T06:29:42.113Z,15.90
2018-04-29T06:32:09.833Z,16.00
2018-04-29T06:34:37.406Z,16.10
2018-04-29T06:37:05.803Z,16.20
2018-04-29T06:39:34.056Z,16.30
2018-04-29T06:42:01.709Z,16.30
2018-04-29T06:44:29.213Z,16.40
2018-04-29T06:46:56.747Z,16.40
2018-04-29T06:49:24.254Z,16.60
2018-04-29T06:51:51.942Z,16.60
2018-04-29T06:54:20.323Z,16.90
2018-04-29T06:56:47.831Z,16.80
2018-04-29T06:59:15.362Z,17.10
2018-04-29T07:01:42.919Z,17.50
2018-04-29T07:04:10.535Z,17.70
2018-04-29T07:06:38.068Z,17.70
2018-04-29T07:09:05.685Z,17.70
2018-04-29T07:11:33.299Z,17.70
2018-04-29T07:14:00.791Z,17.80
2018-04-29T07:16:28.326Z,17.80
2018-04-29T07:18:55.929Z,17.90
2018-04-29T07:21:23.575Z,17.90
2018-04-29T07:23:51.213Z,18.00
2018-04-29T07:26:18.712Z,18.00
2018-04-29T07:28:46.324Z,18.00
2018-04-29T07:31:14.508Z,18.20
2018-04-29T07:33:42.101Z,18.20
2018-04-29T07:36:10.406Z,18.40
2018-04-29T07:38:38.038Z,18.30
2018-04-29T07:41:05.636Z,18.40
2018-04-29T07:43:33.895Z,18.60
2018-04-29T07:46:01.442Z,18.50
2018-04-29T07:48:28.998Z,18.60
2018-04-29T07:50:56.534Z,18.70
2018-04-29T07:53:24.819Z,18.90
2018-04-29T07:55:53.802Z,19.10
2018-04-29T07:58:21.311Z,19.00
2018-04-29T08:00:49.733Z,19.40
2018-04-29T08:03:17.293Z,19.30
2018-04-29T08:05:44.800Z,19.60
2018-04-29T08:08:12.327Z,19.90
2018-04-29T08:10:39.918Z,20.10
2018-04-29T08:13:07.570Z,20.20
2018-04-29T08:15:35.231Z,20.30
2018-04-29T08:18:03.417Z,20.40
2018-04-29T08:20:30.937Z,20.40
2018-04-29T08:22:58.455Z,20.50
2018-04-29T08:25:26.726Z,20.50
2018-04-29T08:27:54.324Z,20.50
2018-04-29T08:30:21.944Z,20.50
2018-04-29T08:32:49.585Z,20.40
2018-04-29T08:35:17.617Z,20.40
2018-04-29T08:37:45.317Z,20.40
2018-04-29T08:40:13.711Z,20.40
2018-04-29T08:42:42.089Z,20.40
2018-04-29T08:45:10.537Z,20.40
2018-04-29T08:47:38.095Z,20.40
2018-04-29T08:50:05.759Z,20.40
2018-04-29T08:52:33.193Z,20.40
2018-04-29T08:55:01.071Z,20.50
2018-04-29T08:57:28.557Z,20.80
2018-04-29T08:59:56.858Z,21.00
2018-04-29T09:02:24.703Z,21.00
2018-04-29T09:04:52.304Z,21.00
2018-04-29T09:07:20.833Z,21.00
2018-04-29T09:09:48.403Z,21.00
2018-04-29T09:12:15.933Z,21.00
2018-04-29T09:14:44.467Z,21.00
2018-04-29T09:17:12.254Z,21.00
2018-04-29T09:19:39.800Z,21.00
2018-04-29T09:22:07.335Z,21.10
2018-04-29T09:24:34.981Z,21.20
2018-04-29T09:27:02.598Z,21.20
2018-04-29T09:29:30.901Z,21.40
2018-04-29T09:31:58.451Z,21.40
2018-04-29T09:34:26.694Z,21.70
2018-04-29T09:36:54.375Z,21.70
2018-04-29T09:39:21.993Z,21.80
2018-04-29T09:41:50.433Z,22.00
2018-04-29T09:44:17.974Z,21.90
2018-04-29T09:46:45.492Z,22.20
2018-04-29T09:49:12.974Z,22.10
2018-04-29T09:51:40.561Z,22.50
2018-04-29T09:54:09.084Z,23.30
2018-04-29T09:56:36.752Z,23.30
2018-04-29T09:59:04.283Z,23.70
2018-04-29T10:01:35.651Z,24.60
2018-04-29T10:04:03.950Z,25.10
2018-04-29T10:06:32.310Z,25.40
2018-04-29T10:08:59.922Z,25.40
2018-04-29T10:11:27.465Z,25.90
2018-04-29T10:13:55.065Z,26.10
2018-04-29T10:16:23.386Z,26.00
2018-04-29T10:18:50.975Z,25.90
2018-04-29T10:21:19.232Z,26.10
2018-04-29T10:23:46.847Z,26.10
2018-04-29T10:26:14.401Z,26.50
2018-04-29T10:28:42.787Z,26.90
2018-04-29T10:31:10.484Z,26.90
2018-04-29T10:33:38.077Z,27.10
2018-04-29T10:36:06.488Z,27.80
2018-04-29T10:38:34.789Z,28.00
2018-04-29T10:41:02.371Z,28.00
2018-04-29T10:43:30.141Z,28.20
2018-04-29T10:45:57.628Z,28.50
2018-04-29T10:48:25.161Z,28.60
2018-04-29T10:50:53.419Z,29.00
2018-04-29T10:53:21.390Z,29.00
2018-04-29T10:55:49.026Z,29.40
2018-04-29T10:58:16.524Z,29.70
2018-04-29T11:00:44.018Z,29.90
2018-04-29T11:03:11.635Z,30.10
2018-04-29T11:05:39.419Z,30.30
2018-04-29T11:08:07.953Z,30.80
2018-04-29T11:10:35.518Z,30.80
2018-04-29T11:13:03.727Z,31.00
2018-04-29T11:15:32.103Z,31.40
2018-04-29T11:18:00.163Z,31.30
2018-04-29T11:20:27.692Z,31.50
2018-04-29T11:22:56.219Z,31.80
2018-04-29T11:25:24.641Z,31.80
2018-04-29T11:27:52.251Z,31.80
2018-04-29T11:30:20.660Z,32.10
2018-04-29T11:32:48.236Z,32.10
2018-04-29T11:35:15.835Z,32.30
2018-04-29T11:37:43.572Z,32.50
2018-04-29T11:40:11.203Z,32.30
2018-04-29T11:42:38.708Z,31.90
2018-04-29T11:45:06.998Z,31.40
2018-04-29T11:47:35.870Z,31.40
2018-04-29T11:50:03.478Z,31.40
2018-04-29T11:52:30.972Z,31.60
2018-04-29T11:54:58.504Z,31.60
2018-04-29T11:57:26.817Z,31.90
2018-04-29T11:59:54.398Z,31.80
2018-04-29T12:02:21.986Z,31.80
2018-04-29T12:04:49.630Z,32.00
2018-04-29T12:07:17.234Z,31.00
2018-04-29T12:09:44.871Z,30.90
2018-04-29T12:12:12.536Z,30.90
2018-04-29T12:14:39.995Z,31.50
2018-04-29T12:17:08.340Z,32.10
2018-04-29T12:19:35.960Z,32.10
2018-04-29T12:22:04.375Z,31.60
2018-04-29T12:24:31.978Z,31.60
2018-04-29T12:26:59.599Z,31.50
2018-04-29T12:29:27.848Z,31.50
2018-04-29T12:31:56.433Z,31.40
2018-04-29T12:34:23.972Z,31.50
2018-04-29T12:36:51.607Z,31.50
2018-04-29T12:39:19.203Z,31.60
2018-04-29T12:41:47.710Z,31.90
2018-04-29T12:44:15.386Z,31.90
2018-04-29T12:46:44.047Z,31.60
2018-04-29T12:49:12.445Z,31.40
2018-04-29T12:51:40.744Z,31.30
2018-04-29T12:54:09.028Z,31.00
2018-04-29T12:56:37.303Z,31.20
2018-04-29T12:59:05.612Z,31.50
2018-04-29T13:01:34.631Z,31.50
2018-04-29T13:04:02.903Z,31.50
2018-04-29T13:06:31.163Z,31.30
2018-04-29T13:08:58.719Z,31.30
2018-04-29T13:11:26.234Z,31.10
2018-04-29T13:13:54.575Z,30.80
2018-04-29T13:16:22.214Z,30.80
2018-04-29T13:18:49.746Z,30.60
2018-04-29T13:21:17.668Z,30.50
2018-04-29T13:23:45.295Z,30.40
2018-04-29T13:26:12.821Z,30.50
2018-04-29T13:28:40.399Z,30.70
2018-04-29T13:31:07.967Z,30.70
2018-04-29T13:33:35.456Z,31.00
2018-04-29T13:36:03.052Z,31.30
2018-04-29T13:38:30.743Z,31.50
2018-04-29T13:40:58.375Z,31.60
2018-04-29T13:43:25.919Z,31.60
2018-04-29T13:45:53.501Z,31.50
2018-04-29T13:48:20.995Z,31.30
2018-04-29T13:50:48.639Z,31.10
2018-04-29T13:53:16.157Z,31.10
2018-04-29T13:55:43.665Z,31.20
2018-04-29T13:58:11.954Z,31.10
2018-04-29T14:00:39.601Z,31.10
2018-04-29T14:03:07.119Z,31.00
2018-04-29T14:05:34.729Z,30.60
2018-04-29T14:08:02.361Z,30.40
2018-04-29T14:10:29.928Z,30.20
2018-04-29T14:12:57.655Z,29.60
2018-04-29T14:15:25.252Z,29.20
2018-04-29T14:17:53.620Z,29.00
2018-04-29T14:20:21.690Z,29.00
2018-04-29T14:22:50.239Z,29.10
2018-04-29T14:25:18.836Z,29.10
2018-04-29T14:27:46.447Z,29.10
2018-04-29T14:30:14.123Z,29.10
2018-04-29T14:32:42.215Z,29.00
2018-04-29T14:35:09.747Z,28.90
2018-04-29T14:37:37.283Z,28.80
2018-04-29T14:40:05.592Z,28.70
2018-04-29T14:42:33.116Z,28.70
2018-04-29T14:45:00.709Z,28.70
2018-04-29T14:47:28.360Z,28.70
2018-04-29T14:49:56.465Z,28.70
2018-04-29T14:52:24.030Z,28.80
2018-04-29T14:54:51.607Z,28.90
2018-04-29T14:57:19.189Z,28.90
2018-04-29T14:59:47.600Z,29.10
2018-04-29T15:02:15.526Z,29.10
2018-04-29T15:04:43.077Z,29.00
2018-04-29T15:07:10.618Z,28.80
2018-04-29T15:09:38.176Z,28.60
2018-04-29T15:12:06.466Z,28.40
2018-04-29T15:14:34.859Z,28.50
2018-04-29T15:17:03.176Z,28.50
2018-04-29T15:19:42.706Z,28.50
2018-04-29T15:22:11.045Z,28.60
2018-04-29T15:24:38.570Z,28.50
2018-04-29T15:27:06.098Z,28.40
2018-04-29T15:29:33.609Z,28.30
2018-04-29T15:32:01.130Z,28.20
2018-04-29T15:34:28.746Z,28.00
2018-04-29T15:36:57.061Z,28.00
2018-04-29T15:39:24.665Z,28.00
2018-04-29T15:41:52.506Z,27.90
2018-04-29T15:44:20.317Z,27.80
2018-04-29T15:46:47.948Z,27.80
2018-04-29T15:49:15.440Z,27.80
2018-04-29T15:51:43.035Z,27.90
2018-04-29T15:54:10.564Z,27.90
2018-04-29T15:56:38.099Z,27.90
2018-04-29T15:59:05.744Z,27.90
2018-04-29T16:01:33.915Z,27.90
2018-04-29T16:04:01.510Z,27.90
2018-04-29T16:06:29.025Z,27.90
2018-04-29T16:08:56.864Z,27.90
2018-04-29T16:11:24.429Z,27.90
2018-04-29T16:13:51.965Z,27.80
2018-04-29T16:16:19.548Z,27.70
2018-04-29T16:18:47.371Z,27.60
2018-04-29T16:21:15.149Z,27.50
2018-04-29T16:23:42.681Z,27.40
2018-04-29T16:26:10.354Z,27.20
2018-04-29T16:28:38.052Z,27.20
2018-04-29T16:31:05.581Z,27.20
2018-04-29T16:33:33.089Z,27.10
2018-04-29T16:36:00.757Z,27.10
2018-04-29T16:38:28.360Z,27.00
2018-04-29T16:40:56.741Z,26.80
2018-04-29T16:43:24.502Z,26.80
2018-04-29T16:45:52.335Z,26.70
2018-04-29T16:48:19.877Z,26.70
2018-04-29T16:50:48.243Z,26.50
2018-04-29T16:53:15.773Z,26.50
2018-04-29T16:55:43.376Z,26.50
2018-04-29T16:58:10.988Z,26.40
2018-04-29T17:00:39.385Z,26.30
2018-04-29T17:03:07.686Z,26.20
2018-04-29T17:05:35.250Z,26.20
2018-04-29T17:08:03.570Z,26.10
2018-04-29T17:10:31.160Z,26.10
2018-04-29T17:12:58.683Z,26.00
2018-04-29T17:15:27.103Z,25.90
2018-04-29T17:17:54.693Z,25.90
2018-04-29T17:20:22.193Z,25.80
2018-04-29T17:22:50.270Z,25.80
2018-04-29T17:25:17.991Z,25.70
2018-04-29T17:27:45.499Z,25.60
2018-04-29T17:30:13.036Z,25.60
2018-04-29T17:32:40.665Z,25.50
2018-04-29T17:35:08.273Z,25.50
2018-04-29T17:37:35.845Z,25.40
2018-04-29T17:40:05.363Z,25.20
2018-04-29T17:42:33.333Z,25.20
2018-04-29T17:45:01.715Z,25.00
2018-04-29T17:47:30.128Z,24.90
2018-04-29T17:49:57.903Z,24.90
2018-04-29T17:52:25.642Z,24.90
2018-04-29T17:54:53.258Z,24.80
2018-04-29T17:57:21.041Z,24.80
2018-04-29T17:59:48.604Z,24.70
2018-04-29T18:02:16.273Z,24.60
2018-04-29T18:04:43.811Z,24.50
2018-04-29T18:07:12.215Z,24.40
2018-04-29T18:09:40.058Z,24.40
2018-04-29T18:12:07.990Z,24.40
2018-04-29T18:14:35.543Z,24.40
2018-04-29T18:17:04.261Z,24.20
2018-04-29T18:19:31.867Z,24.20
2018-04-29T18:21:59.638Z,24.10
2018-04-29T18:24:27.394Z,24.00
2018-04-29T18:26:55.057Z,24.00
2018-04-29T18:29:22.745Z,23.90
2018-04-29T18:31:50.353Z,23.90
2018-04-29T18:34:17.852Z,23.80
2018-04-29T18:36:45.350Z,23.80
2018-04-29T18:39:12.888Z,23.80
2018-04-29T18:41:40.377Z,23.80
2018-04-29T18:44:08.994Z,23.60
2018-04-29T18:46:36.576Z,23.60
2018-04-29T18:49:04.160Z,23.50
2018-04-29T18:51:31.887Z,23.40
2018-04-29T18:54:00.130Z,23.30
2018-04-29T18:56:27.669Z,23.30
2018-04-29T18:58:55.834Z,23.20
2018-04-29T19:01:24.506Z,23.20
2018-04-29T19:03:52.832Z,23.20
2018-04-29T19:06:20.395Z,23.20
2018-04-29T19:08:49.728Z,23.40
2018-04-29T19:11:17.402Z,23.40
2018-04-29T19:13:45.281Z,23.40
2018-04-29T19:16:12.880Z,23.40
2018-04-29T19:18:40.776Z,23.40
2018-04-29T19:21:09.979Z,23.40
2018-04-29T19:23:37.574Z,23.40
2018-04-29T19:26:05.842Z,23.40
2018-04-29T19:28:34.301Z,23.40
2018-04-29T19:31:02.093Z,23.30
2018-04-29T19:33:30.144Z,23.30
2018-04-29T19:35:58.758Z,23.30
2018-04-29T19:38:27.056Z,23.30
2018-04-29T19:40:55.178Z,23.30
2018-04-29T19:43:22.876Z,23.30
2018-04-29T19:45:51.621Z,23.20
2018-04-29T19:48:19.377Z,23.20
2018-04-29T19:50:47.289Z,23.10
2018-04-29T19:53:15.881Z,23.10
2018-04-29T19:55:43.862Z,23.00
2018-04-29T19:58:11.857Z,23.00
2018-04-29T20:00:40.339Z,23.00
2018-04-29T20:03:08.467Z,23.00
2018-04-29T20:05:37.359Z,23.00
2018-04-29T20:08:04.937Z,23.00
2018-04-29T20:10:32.725Z,23.00
2018-04-29T20:13:01.962Z,22.90
2018-04-29T20:15:29.842Z,22.80
2018-04-29T20:17:57.844Z,22.80
2018-04-29T20:20:26.409Z,22.80
2018-04-29T20:22:54.175Z,22.80
2018-04-29T20:25:21.657Z,22.70
2018-04-29T20:27:49.721Z,22.70
2018-04-29T20:30:17.510Z,22.70
2018-04-29T20:32:46.036Z,22.60
2018-04-29T20:35:13.554Z,22.60
2018-04-29T20:37:42.430Z,22.50
2018-04-29T20:40:09.945Z,22.50
2018-04-29T20:42:37.557Z,22.50
2018-04-29T20:45:05.058Z,22.50
2018-04-29T20:47:32.693Z,22.40
2018-04-29T20:50:00.275Z,22.40
2018-04-29T20:52:28.273Z,22.40
2018-04-29T20:54:55.897Z,22.40
2018-04-29T20:57:23.899Z,22.30
2018-04-29T20:59:52.070Z,22.30
2018-04-29T21:02:19.670Z,22.20
2018-04-29T21:04:47.245Z,22.20
2018-04-29T21:07:14.764Z,22.10
2018-04-29T21:09:43.143Z,22.10
2018-04-29T21:12:10.747Z,22.00
2018-04-29T21:14:38.324Z,22.00
2018-04-29T21:17:05.955Z,22.00
2018-04-29T21:19:33.626Z,22.00
2018-04-29T21:22:01.349Z,21.90
2018-04-29T21:24:28.871Z,21.90
2018-04-29T21:26:56.576Z,21.70
2018-04-29T21:29:24.985Z,21.40
2018-04-29T21:31:52.500Z,21.30
2018-04-29T21:34:20.117Z,21.20
2018-04-29T21:36:47.814Z,21.10
2018-04-29T21:39:15.366Z,21.00
2018-04-29T21:41:43.907Z,20.90
2018-04-29T21:44:11.509Z,20.80
2018-04-29T21:46:39.144Z,20.70
2018-04-29T21:49:07.043Z,20.60
2018-04-29T21:51:34.581Z,20.50
2018-04-29T21:54:02.078Z,20.50
2018-04-29T21:56:29.632Z,20.40
2018-04-29T21:58:57.220Z,20.30
2018-04-29T22:01:24.850Z,20.30
2018-04-29T22:03:52.758Z,20.20
2018-04-29T22:06:20.383Z,20.20
2018-04-29T22:08:48.784Z,20.10
2018-04-29T22:11:16.668Z,20.10
2018-04-29T22:13:44.198Z,20.10
2018-04-29T22:16:12.357Z,19.90
2018-04-29T22:18:39.920Z,19.90
2018-04-29T22:21:07.550Z,19.90
2018-04-29T22:23:35.818Z,19.80
2018-04-29T22:26:03.345Z,19.80
2018-04-29T22:28:30.885Z,19.80
2018-04-29T22:30:59.175Z,19.70
2018-04-29T22:33:27.443Z,19.60
2018-04-29T22:35:55.055Z,19.60
2018-04-29T22:38:22.663Z,19.60
2018-04-29T22:40:51.038Z,19.50
2018-04-29T22:43:18.542Z,19.50
2018-04-29T22:45:47.046Z,19.50
2018-04-29T22:48:14.627Z,19.40
2018-04-29T22:50:42.315Z,19.40
2018-04-29T22:53:10.779Z,19.30
2018-04-29T22:55:38.398Z,19.30
2018-04-29T22:58:06.408Z,19.30
2018-04-29T23:00:33.896Z,19.20
2018-04-29T23:03:01.415Z,19.20
2018-04-29T23:05:29.185Z,19.10
2018-04-29T23:07:56.764Z,19.10
2018-04-29T23:10:24.255Z,19.10
2018-04-29T23:12:51.990Z,19.10
2018-04-29T23:15:20.253Z,19.00
2018-04-29T23:17:47.841Z,18.90
2018-04-29T23:20:16.136Z,19.00
2018-04-29T23:22:45.115Z,18.90
2018-04-29T23:25:12.630Z,18.90
2018-04-29T23:27:40.182Z,18.90
2018-04-29T23:30:08.677Z,18.80
2018-04-29T23:32:36.954Z,18.80
2018-04-29T23:35:04.467Z,18.80
2018-04-29T23:37:31.977Z,18.80
2018-04-29T23:39:59.800Z,18.80
2018-04-29T23:42:32.373Z,18.70
2018-04-29T23:45:00.683Z,18.70
2018-04-29T23:47:28.461Z,18.70
2018-04-29T23:49:55.995Z,18.70
2018-04-29T23:52:24.287Z,18.60
2018-04-29T23:54:52.599Z,18.60
2018-04-29T23:57:20.141Z,18.60
2018-04-29T23:59:47.773Z,18.60
